sensor_id;sensor_type;location;lat;lon;timestamp;P1;durP1;ratioP1;P2;durP2;ratioP2
1879;SDS011;49285;49.002;8.390;2023-04-25T00:01:35;6.83;;;5.60;;
1879;SDS011;49285;49.002;8.390;2023-04-25T00:04:02;6.20;;;5.23;;
1879;SDS011;49285;49.002;8.390;2023-04-25T00:06:28;6.33;;;5.20;;
1879;SDS011;49285;49.002;8.390;2023-04-25T00:08:54;7.10;;;5.20;;
1879;SDS011;49285;49.002;8.390;2023-04-25T00:11:21;6.43;;;5.73;;
1879;SDS011;49285;49.002;8.390;2023-04-25T00:13:47;7.03;;;6.03;;
1879;SDS011;49285;49.002;8.390;2023-04-25T00:16:14;6.10;;;5.33;;
1879;SDS011;49285;49.002;8.390;2023-04-25T00:18:41;5.67;;;5.10;;
1879;SDS011;49285;49.002;8.390;2023-04-25T00:21:07;8.30;;;5.10;;
1879;SDS011;49285;49.002;8.390;2023-04-25T00:23:33;6.57;;;5.33;;
1879;SDS011;49285;49.002;8.390;2023-04-25T00:26:01;5.97;;;5.43;;
1879;SDS011;49285;49.002;8.390;2023-04-25T00:28:27;7.33;;;5.70;;
1879;SDS011;49285;49.002;8.390;2023-04-25T00:30:53;6.50;;;5.50;;
1879;SDS011;49285;49.002;8.390;2023-04-25T00:33:18;5.87;;;5.27;;
1879;SDS011;49285;49.002;8.390;2023-04-25T00:35:44;4.90;;;4.33;;
1879;SDS011;49285;49.002;8.390;2023-04-25T00:38:09;6.40;;;5.20;;
1879;SDS011;49285;49.002;8.390;2023-04-25T00:40:35;4.90;;;4.30;;
1879;SDS011;49285;49.002;8.390;2023-04-25T00:43:00;5.90;;;5.20;;
1879;SDS011;49285;49.002;8.390;2023-04-25T00:45:27;5.40;;;4.33;;
1879;SDS011;49285;49.002;8.390;2023-04-25T00:47:57;6.60;;;4.40;;
1879;SDS011;49285;49.002;8.390;2023-04-25T00:50:23;5.23;;;4.60;;
1879;SDS011;49285;49.002;8.390;2023-04-25T00:52:49;6.67;;;4.70;;
1879;SDS011;49285;49.002;8.390;2023-04-25T00:55:15;5.93;;;4.70;;
1879;SDS011;49285;49.002;8.390;2023-04-25T00:57:41;6.80;;;5.40;;
1879;SDS011;49285;49.002;8.390;2023-04-25T01:00:07;6.70;;;5.07;;
1879;SDS011;49285;49.002;8.390;2023-04-25T01:02:34;5.50;;;4.77;;
1879;SDS011;49285;49.002;8.390;2023-04-25T01:05:01;6.77;;;4.63;;
1879;SDS011;49285;49.002;8.390;2023-04-25T01:07:27;4.90;;;4.40;;
1879;SDS011;49285;49.002;8.390;2023-04-25T01:09:52;6.03;;;4.90;;
1879;SDS011;49285;49.002;8.390;2023-04-25T01:12:18;5.50;;;5.00;;
1879;SDS011;49285;49.002;8.390;2023-04-25T01:14:43;5.23;;;4.73;;
1879;SDS011;49285;49.002;8.390;2023-04-25T01:17:10;5.13;;;4.43;;
1879;SDS011;49285;49.002;8.390;2023-04-25T01:19:36;5.83;;;4.63;;
1879;SDS011;49285;49.002;8.390;2023-04-25T01:22:01;5.60;;;5.00;;
1879;SDS011;49285;49.002;8.390;2023-04-25T01:24:28;7.67;;;5.60;;
1879;SDS011;49285;49.002;8.390;2023-04-25T01:26:54;5.27;;;4.50;;
1879;SDS011;49285;49.002;8.390;2023-04-25T01:29:21;5.30;;;4.60;;
1879;SDS011;49285;49.002;8.390;2023-04-25T01:31:46;5.40;;;4.83;;
1879;SDS011;49285;49.002;8.390;2023-04-25T01:34:12;5.67;;;5.07;;
1879;SDS011;49285;49.002;8.390;2023-04-25T01:36:38;5.23;;;4.53;;
1879;SDS011;49285;49.002;8.390;2023-04-25T01:39:05;6.17;;;5.57;;
1879;SDS011;49285;49.002;8.390;2023-04-25T01:41:31;6.10;;;5.27;;
1879;SDS011;49285;49.002;8.390;2023-04-25T01:43:57;6.27;;;4.73;;
1879;SDS011;49285;49.002;8.390;2023-04-25T01:46:22;6.10;;;4.70;;
1879;SDS011;49285;49.002;8.390;2023-04-25T01:48:48;5.30;;;4.43;;
1879;SDS011;49285;49.002;8.390;2023-04-25T01:51:14;6.53;;;4.63;;
1879;SDS011;49285;49.002;8.390;2023-04-25T01:53:40;6.47;;;4.90;;
1879;SDS011;49285;49.002;8.390;2023-04-25T01:56:06;5.30;;;4.80;;
1879;SDS011;49285;49.002;8.390;2023-04-25T01:58:31;5.73;;;5.23;;
1879;SDS011;49285;49.002;8.390;2023-04-25T02:00:57;6.77;;;5.10;;
1879;SDS011;49285;49.002;8.390;2023-04-25T02:03:23;7.07;;;4.90;;
1879;SDS011;49285;49.002;8.390;2023-04-25T02:05:48;6.23;;;4.80;;
1879;SDS011;49285;49.002;8.390;2023-04-25T02:08:15;5.30;;;4.80;;
1879;SDS011;49285;49.002;8.390;2023-04-25T02:10:42;6.90;;;5.70;;
1879;SDS011;49285;49.002;8.390;2023-04-25T02:13:08;5.57;;;4.83;;
1879;SDS011;49285;49.002;8.390;2023-04-25T02:15:33;6.30;;;5.70;;
1879;SDS011;49285;49.002;8.390;2023-04-25T02:17:59;5.23;;;4.57;;
1879;SDS011;49285;49.002;8.390;2023-04-25T02:20:28;5.20;;;4.70;;
1879;SDS011;49285;49.002;8.390;2023-04-25T02:22:55;5.97;;;5.37;;
1879;SDS011;49285;49.002;8.390;2023-04-25T02:25:21;7.83;;;5.33;;
1879;SDS011;49285;49.002;8.390;2023-04-25T02:27:47;5.50;;;4.90;;
1879;SDS011;49285;49.002;8.390;2023-04-25T02:30:13;7.37;;;5.40;;
1879;SDS011;49285;49.002;8.390;2023-04-25T02:32:39;6.37;;;5.30;;
1879;SDS011;49285;49.002;8.390;2023-04-25T02:35:05;6.70;;;5.10;;
1879;SDS011;49285;49.002;8.390;2023-04-25T02:37:32;5.60;;;5.00;;
1879;SDS011;49285;49.002;8.390;2023-04-25T02:39:59;6.00;;;5.40;;
1879;SDS011;49285;49.002;8.390;2023-04-25T02:42:24;5.37;;;4.83;;
1879;SDS011;49285;49.002;8.390;2023-04-25T02:44:51;5.67;;;5.10;;
1879;SDS011;49285;49.002;8.390;2023-04-25T02:47:16;6.83;;;5.43;;
1879;SDS011;49285;49.002;8.390;2023-04-25T02:49:42;7.23;;;6.53;;
1879;SDS011;49285;49.002;8.390;2023-04-25T02:52:07;5.90;;;5.30;;
1879;SDS011;49285;49.002;8.390;2023-04-25T02:54:33;8.13;;;4.93;;
1879;SDS011;49285;49.002;8.390;2023-04-25T02:56:59;6.83;;;5.00;;
1879;SDS011;49285;49.002;8.390;2023-04-25T02:59:27;5.60;;;5.00;;
1879;SDS011;49285;49.002;8.390;2023-04-25T03:01:52;5.80;;;5.20;;
1879;SDS011;49285;49.002;8.390;2023-04-25T03:04:18;7.60;;;5.10;;
1879;SDS011;49285;49.002;8.390;2023-04-25T03:06:44;7.23;;;5.40;;
1879;SDS011;49285;49.002;8.390;2023-04-25T03:09:09;10.03;;;5.43;;
1879;SDS011;49285;49.002;8.390;2023-04-25T03:11:36;6.60;;;5.10;;
1879;SDS011;49285;49.002;8.390;2023-04-25T03:14:03;6.47;;;5.23;;
1879;SDS011;49285;49.002;8.390;2023-04-25T03:16:29;6.37;;;4.77;;
1879;SDS011;49285;49.002;8.390;2023-04-25T03:18:55;7.00;;;5.20;;
1879;SDS011;49285;49.002;8.390;2023-04-25T03:21:21;6.83;;;5.50;;
1879;SDS011;49285;49.002;8.390;2023-04-25T03:23:47;5.83;;;5.20;;
1879;SDS011;49285;49.002;8.390;2023-04-25T03:26:12;5.90;;;5.10;;
1879;SDS011;49285;49.002;8.390;2023-04-25T03:28:38;6.77;;;5.40;;
1879;SDS011;49285;49.002;8.390;2023-04-25T03:31:05;6.47;;;5.80;;
1879;SDS011;49285;49.002;8.390;2023-04-25T03:33:30;5.63;;;5.13;;
1879;SDS011;49285;49.002;8.390;2023-04-25T03:35:56;5.90;;;5.30;;
1879;SDS011;49285;49.002;8.390;2023-04-25T03:38:22;6.30;;;4.83;;
1879;SDS011;49285;49.002;8.390;2023-04-25T03:40:48;6.23;;;5.63;;
1879;SDS011;49285;49.002;8.390;2023-04-25T03:43:13;7.17;;;5.20;;
1879;SDS011;49285;49.002;8.390;2023-04-25T03:45:39;5.93;;;5.27;;
1879;SDS011;49285;49.002;8.390;2023-04-25T03:48:05;6.80;;;5.00;;
1879;SDS011;49285;49.002;8.390;2023-04-25T03:50:30;7.30;;;5.50;;
1879;SDS011;49285;49.002;8.390;2023-04-25T03:52:56;6.47;;;5.57;;
1879;SDS011;49285;49.002;8.390;2023-04-25T03:55:21;6.00;;;5.40;;
1879;SDS011;49285;49.002;8.390;2023-04-25T03:57:47;5.33;;;4.70;;
1879;SDS011;49285;49.002;8.390;2023-04-25T04:00:12;5.80;;;5.07;;
1879;SDS011;49285;49.002;8.390;2023-04-25T04:02:39;5.30;;;4.80;;
1879;SDS011;49285;49.002;8.390;2023-04-25T04:05:04;6.57;;;5.27;;
1879;SDS011;49285;49.002;8.390;2023-04-25T04:07:30;5.57;;;4.97;;
1879;SDS011;49285;49.002;8.390;2023-04-25T04:09:57;6.57;;;4.90;;
1879;SDS011;49285;49.002;8.390;2023-04-25T04:12:23;6.83;;;5.30;;
1879;SDS011;49285;49.002;8.390;2023-04-25T04:14:49;6.33;;;5.30;;
1879;SDS011;49285;49.002;8.390;2023-04-25T04:17:15;6.20;;;5.50;;
1879;SDS011;49285;49.002;8.390;2023-04-25T04:19:41;8.20;;;5.83;;
1879;SDS011;49285;49.002;8.390;2023-04-25T04:22:06;6.23;;;5.60;;
1879;SDS011;49285;49.002;8.390;2023-04-25T04:24:32;5.50;;;5.00;;
1879;SDS011;49285;49.002;8.390;2023-04-25T04:26:57;7.90;;;5.00;;
1879;SDS011;49285;49.002;8.390;2023-04-25T04:29:23;6.90;;;5.67;;
1879;SDS011;49285;49.002;8.390;2023-04-25T04:31:50;6.50;;;5.13;;
1879;SDS011;49285;49.002;8.390;2023-04-25T04:34:18;6.20;;;5.60;;
1879;SDS011;49285;49.002;8.390;2023-04-25T04:36:47;7.00;;;5.20;;
1879;SDS011;49285;49.002;8.390;2023-04-25T04:39:13;6.47;;;5.10;;
1879;SDS011;49285;49.002;8.390;2023-04-25T04:41:39;6.07;;;5.47;;
1879;SDS011;49285;49.002;8.390;2023-04-25T04:44:05;5.67;;;5.07;;
1879;SDS011;49285;49.002;8.390;2023-04-25T04:46:31;6.10;;;5.50;;
1879;SDS011;49285;49.002;8.390;2023-04-25T04:49:03;5.80;;;5.20;;
1879;SDS011;49285;49.002;8.390;2023-04-25T04:51:31;6.17;;;5.30;;
1879;SDS011;49285;49.002;8.390;2023-04-25T04:53:58;7.07;;;5.97;;
1879;SDS011;49285;49.002;8.390;2023-04-25T04:56:27;6.50;;;5.30;;
1879;SDS011;49285;49.002;8.390;2023-04-25T04:58:54;7.60;;;6.10;;
1879;SDS011;49285;49.002;8.390;2023-04-25T05:01:19;8.57;;;5.30;;
1879;SDS011;49285;49.002;8.390;2023-04-25T05:03:45;5.90;;;5.30;;
1879;SDS011;49285;49.002;8.390;2023-04-25T05:06:11;6.30;;;5.73;;
1879;SDS011;49285;49.002;8.390;2023-04-25T05:08:36;5.90;;;5.30;;
1879;SDS011;49285;49.002;8.390;2023-04-25T05:11:02;6.20;;;5.40;;
1879;SDS011;49285;49.002;8.390;2023-04-25T05:13:27;5.83;;;5.33;;
1879;SDS011;49285;49.002;8.390;2023-04-25T05:15:53;10.07;;;5.97;;
1879;SDS011;49285;49.002;8.390;2023-04-25T05:18:18;6.40;;;5.40;;
1879;SDS011;49285;49.002;8.390;2023-04-25T05:20:44;8.67;;;5.70;;
1879;SDS011;49285;49.002;8.390;2023-04-25T05:23:10;5.50;;;4.37;;
1879;SDS011;49285;49.002;8.390;2023-04-25T05:25:35;9.60;;;4.53;;
1879;SDS011;49285;49.002;8.390;2023-04-25T05:28:01;5.23;;;4.47;;
1879;SDS011;49285;49.002;8.390;2023-04-25T05:30:27;5.13;;;4.40;;
1879;SDS011;49285;49.002;8.390;2023-04-25T05:32:52;7.63;;;5.60;;
1879;SDS011;49285;49.002;8.390;2023-04-25T05:35:18;6.30;;;5.23;;
1879;SDS011;49285;49.002;8.390;2023-04-25T05:37:43;5.43;;;4.93;;
1879;SDS011;49285;49.002;8.390;2023-04-25T05:40:09;6.77;;;5.27;;
1879;SDS011;49285;49.002;8.390;2023-04-25T05:42:35;5.90;;;5.30;;
1879;SDS011;49285;49.002;8.390;2023-04-25T05:45:01;5.70;;;5.00;;
1879;SDS011;49285;49.002;8.390;2023-04-25T05:47:27;5.63;;;5.03;;
1879;SDS011;49285;49.002;8.390;2023-04-25T05:49:52;7.00;;;4.90;;
1879;SDS011;49285;49.002;8.390;2023-04-25T05:52:18;8.37;;;5.33;;
1879;SDS011;49285;49.002;8.390;2023-04-25T05:54:43;5.63;;;4.80;;
1879;SDS011;49285;49.002;8.390;2023-04-25T05:57:17;6.10;;;4.97;;
1879;SDS011;49285;49.002;8.390;2023-04-25T05:59:47;6.60;;;5.77;;
1879;SDS011;49285;49.002;8.390;2023-04-25T06:02:13;13.30;;;9.40;;
1879;SDS011;49285;49.002;8.390;2023-04-25T06:04:38;9.20;;;6.60;;
1879;SDS011;49285;49.002;8.390;2023-04-25T06:07:04;12.77;;;10.27;;
1879;SDS011;49285;49.002;8.390;2023-04-25T06:09:29;9.87;;;6.10;;
1879;SDS011;49285;49.002;8.390;2023-04-25T06:11:55;7.43;;;5.83;;
1879;SDS011;49285;49.002;8.390;2023-04-25T06:14:20;6.30;;;5.67;;
1879;SDS011;49285;49.002;8.390;2023-04-25T06:16:46;7.87;;;5.60;;
1879;SDS011;49285;49.002;8.390;2023-04-25T06:19:11;7.30;;;6.50;;
1879;SDS011;49285;49.002;8.390;2023-04-25T06:21:37;6.47;;;5.70;;
1879;SDS011;49285;49.002;8.390;2023-04-25T06:24:03;6.37;;;5.77;;
1879;SDS011;49285;49.002;8.390;2023-04-25T06:26:28;10.67;;;6.20;;
1879;SDS011;49285;49.002;8.390;2023-04-25T06:28:54;8.13;;;6.50;;
1879;SDS011;49285;49.002;8.390;2023-04-25T06:31:20;6.73;;;5.40;;
1879;SDS011;49285;49.002;8.390;2023-04-25T06:33:45;7.30;;;5.77;;
1879;SDS011;49285;49.002;8.390;2023-04-25T06:36:11;6.53;;;5.80;;
1879;SDS011;49285;49.002;8.390;2023-04-25T06:38:36;8.50;;;5.83;;
1879;SDS011;49285;49.002;8.390;2023-04-25T06:41:02;6.23;;;5.63;;
1879;SDS011;49285;49.002;8.390;2023-04-25T06:43:27;9.23;;;5.27;;
1879;SDS011;49285;49.002;8.390;2023-04-25T06:45:53;7.93;;;6.00;;
1879;SDS011;49285;49.002;8.390;2023-04-25T06:48:19;7.47;;;5.47;;
1879;SDS011;49285;49.002;8.390;2023-04-25T06:50:44;7.03;;;6.33;;
1879;SDS011;49285;49.002;8.390;2023-04-25T06:53:10;6.60;;;5.87;;
1879;SDS011;49285;49.002;8.390;2023-04-25T06:55:36;6.40;;;5.73;;
1879;SDS011;49285;49.002;8.390;2023-04-25T06:58:03;6.80;;;6.03;;
1879;SDS011;49285;49.002;8.390;2023-04-25T07:00:28;9.50;;;7.33;;
1879;SDS011;49285;49.002;8.390;2023-04-25T07:02:55;6.90;;;6.07;;
1879;SDS011;49285;49.002;8.390;2023-04-25T07:05:20;7.80;;;6.60;;
1879;SDS011;49285;49.002;8.390;2023-04-25T07:07:46;9.20;;;6.27;;
1879;SDS011;49285;49.002;8.390;2023-04-25T07:10:11;7.17;;;6.47;;
1879;SDS011;49285;49.002;8.390;2023-04-25T07:12:37;6.60;;;6.00;;
1879;SDS011;49285;49.002;8.390;2023-04-25T07:15:03;7.40;;;6.10;;
1879;SDS011;49285;49.002;8.390;2023-04-25T07:17:31;7.03;;;6.33;;
1879;SDS011;49285;49.002;8.390;2023-04-25T07:19:57;7.60;;;5.70;;
1879;SDS011;49285;49.002;8.390;2023-04-25T07:22:23;7.63;;;6.40;;
1879;SDS011;49285;49.002;8.390;2023-04-25T07:24:49;7.70;;;6.03;;
1879;SDS011;49285;49.002;8.390;2023-04-25T07:27:15;8.90;;;6.37;;
1879;SDS011;49285;49.002;8.390;2023-04-25T07:29:40;7.60;;;6.80;;
1879;SDS011;49285;49.002;8.390;2023-04-25T07:32:06;12.03;;;7.30;;
1879;SDS011;49285;49.002;8.390;2023-04-25T07:34:32;11.07;;;8.50;;
1879;SDS011;49285;49.002;8.390;2023-04-25T07:37:02;6.40;;;5.80;;
1879;SDS011;49285;49.002;8.390;2023-04-25T07:39:27;6.87;;;6.17;;
1879;SDS011;49285;49.002;8.390;2023-04-25T07:41:53;7.80;;;6.63;;
1879;SDS011;49285;49.002;8.390;2023-04-25T07:44:19;8.80;;;6.70;;
1879;SDS011;49285;49.002;8.390;2023-04-25T07:46:45;8.80;;;7.40;;
1879;SDS011;49285;49.002;8.390;2023-04-25T07:49:10;6.97;;;6.27;;
1879;SDS011;49285;49.002;8.390;2023-04-25T07:51:36;8.87;;;7.97;;
1879;SDS011;49285;49.002;8.390;2023-04-25T07:54:02;8.83;;;7.93;;
1879;SDS011;49285;49.002;8.390;2023-04-25T07:56:27;9.33;;;8.23;;
1879;SDS011;49285;49.002;8.390;2023-04-25T07:58:53;9.47;;;7.47;;
1879;SDS011;49285;49.002;8.390;2023-04-25T08:01:18;9.33;;;7.90;;
1879;SDS011;49285;49.002;8.390;2023-04-25T08:03:46;8.90;;;7.87;;
1879;SDS011;49285;49.002;8.390;2023-04-25T08:06:12;10.27;;;8.23;;
1879;SDS011;49285;49.002;8.390;2023-04-25T08:08:37;11.47;;;9.27;;
1879;SDS011;49285;49.002;8.390;2023-04-25T08:11:03;15.27;;;12.77;;
1879;SDS011;49285;49.002;8.390;2023-04-25T08:13:28;12.90;;;10.10;;
1879;SDS011;49285;49.002;8.390;2023-04-25T08:15:54;16.00;;;12.00;;
1879;SDS011;49285;49.002;8.390;2023-04-25T08:18:19;11.07;;;9.17;;
1879;SDS011;49285;49.002;8.390;2023-04-25T08:20:45;12.63;;;9.10;;
1879;SDS011;49285;49.002;8.390;2023-04-25T08:23:11;11.37;;;8.43;;
1879;SDS011;49285;49.002;8.390;2023-04-25T08:25:36;10.40;;;8.53;;
1879;SDS011;49285;49.002;8.390;2023-04-25T08:28:02;12.93;;;9.33;;
1879;SDS011;49285;49.002;8.390;2023-04-25T08:30:28;13.70;;;8.87;;
1879;SDS011;49285;49.002;8.390;2023-04-25T08:32:54;10.30;;;7.87;;
1879;SDS011;49285;49.002;8.390;2023-04-25T08:35:20;11.63;;;9.80;;
1879;SDS011;49285;49.002;8.390;2023-04-25T08:37:45;13.40;;;11.13;;
1879;SDS011;49285;49.002;8.390;2023-04-25T08:40:12;11.20;;;9.40;;
1879;SDS011;49285;49.002;8.390;2023-04-25T08:42:41;11.10;;;9.37;;
1879;SDS011;49285;49.002;8.390;2023-04-25T08:45:07;13.93;;;9.80;;
1879;SDS011;49285;49.002;8.390;2023-04-25T08:47:33;12.30;;;9.33;;
1879;SDS011;49285;49.002;8.390;2023-04-25T08:50:00;13.70;;;9.93;;
1879;SDS011;49285;49.002;8.390;2023-04-25T08:52:28;13.20;;;9.93;;
1879;SDS011;49285;49.002;8.390;2023-04-25T08:55:00;11.93;;;10.07;;
1879;SDS011;49285;49.002;8.390;2023-04-25T08:57:26;15.23;;;9.80;;
1879;SDS011;49285;49.002;8.390;2023-04-25T08:59:53;12.03;;;10.73;;
1879;SDS011;49285;49.002;8.390;2023-04-25T09:02:20;11.27;;;9.67;;
1879;SDS011;49285;49.002;8.390;2023-04-25T09:04:46;13.27;;;10.63;;
1879;SDS011;49285;49.002;8.390;2023-04-25T09:07:13;11.53;;;10.30;;
1879;SDS011;49285;49.002;8.390;2023-04-25T09:09:43;11.80;;;10.30;;
1879;SDS011;49285;49.002;8.390;2023-04-25T09:12:09;12.90;;;9.83;;
1879;SDS011;49285;49.002;8.390;2023-04-25T09:14:35;12.97;;;10.87;;
1879;SDS011;49285;49.002;8.390;2023-04-25T09:17:01;15.60;;;11.20;;
1879;SDS011;49285;49.002;8.390;2023-04-25T09:19:32;11.30;;;10.10;;
1879;SDS011;49285;49.002;8.390;2023-04-25T09:22:00;15.80;;;10.70;;
1879;SDS011;49285;49.002;8.390;2023-04-25T09:24:37;11.90;;;10.40;;
1879;SDS011;49285;49.002;8.390;2023-04-25T09:27:07;13.50;;;10.53;;
1879;SDS011;49285;49.002;8.390;2023-04-25T09:29:35;15.43;;;10.70;;
1879;SDS011;49285;49.002;8.390;2023-04-25T09:32:26;14.03;;;10.57;;
1879;SDS011;49285;49.002;8.390;2023-04-25T09:34:52;12.50;;;10.30;;
1879;SDS011;49285;49.002;8.390;2023-04-25T09:37:22;12.77;;;10.87;;
1879;SDS011;49285;49.002;8.390;2023-04-25T09:39:50;13.27;;;10.80;;
1879;SDS011;49285;49.002;8.390;2023-04-25T09:42:18;16.47;;;10.73;;
1879;SDS011;49285;49.002;8.390;2023-04-25T09:44:48;12.97;;;10.63;;
1879;SDS011;49285;49.002;8.390;2023-04-25T09:47:16;13.13;;;10.23;;
1879;SDS011;49285;49.002;8.390;2023-04-25T09:49:42;14.00;;;11.20;;
1879;SDS011;49285;49.002;8.390;2023-04-25T09:52:09;12.17;;;10.70;;
1879;SDS011;49285;49.002;8.390;2023-04-25T09:54:39;11.30;;;9.80;;
1879;SDS011;49285;49.002;8.390;2023-04-25T09:57:10;11.40;;;9.40;;
1879;SDS011;49285;49.002;8.390;2023-04-25T09:59:42;12.60;;;10.13;;
1879;SDS011;49285;49.002;8.390;2023-04-25T10:02:09;17.27;;;11.23;;
1879;SDS011;49285;49.002;8.390;2023-04-25T10:04:36;15.83;;;12.03;;
1879;SDS011;49285;49.002;8.390;2023-04-25T10:07:04;13.70;;;11.30;;
1879;SDS011;49285;49.002;8.390;2023-04-25T10:09:31;13.90;;;11.57;;
1879;SDS011;49285;49.002;8.390;2023-04-25T10:12:00;16.50;;;11.10;;
1879;SDS011;49285;49.002;8.390;2023-04-25T10:14:28;12.80;;;11.50;;
1879;SDS011;49285;49.002;8.390;2023-04-25T10:16:55;17.20;;;14.70;;
1879;SDS011;49285;49.002;8.390;2023-04-25T10:19:23;16.37;;;12.70;;
1879;SDS011;49285;49.002;8.390;2023-04-25T10:21:54;16.60;;;13.17;;
1879;SDS011;49285;49.002;8.390;2023-04-25T10:24:36;18.47;;;11.93;;
1879;SDS011;49285;49.002;8.390;2023-04-25T10:27:03;19.23;;;12.50;;
1879;SDS011;49285;49.002;8.390;2023-04-25T10:29:29;17.63;;;12.20;;
1879;SDS011;49285;49.002;8.390;2023-04-25T10:31:55;16.97;;;12.20;;
1879;SDS011;49285;49.002;8.390;2023-04-25T10:34:38;15.80;;;12.60;;
1879;SDS011;49285;49.002;8.390;2023-04-25T10:37:05;16.93;;;12.27;;
1879;SDS011;49285;49.002;8.390;2023-04-25T10:39:35;15.00;;;12.17;;
1879;SDS011;49285;49.002;8.390;2023-04-25T10:42:01;16.50;;;12.70;;
1879;SDS011;49285;49.002;8.390;2023-04-25T10:44:28;17.37;;;12.00;;
1879;SDS011;49285;49.002;8.390;2023-04-25T10:46:55;17.97;;;12.03;;
1879;SDS011;49285;49.002;8.390;2023-04-25T10:49:32;17.40;;;13.00;;
1879;SDS011;49285;49.002;8.390;2023-04-25T10:54:56;12.23;;;10.80;;
1879;SDS011;49285;49.002;8.390;2023-04-25T10:57:26;14.33;;;11.03;;
1879;SDS011;49285;49.002;8.390;2023-04-25T10:59:53;15.00;;;10.90;;
1879;SDS011;49285;49.002;8.390;2023-04-25T11:02:19;15.30;;;11.50;;
1879;SDS011;49285;49.002;8.390;2023-04-25T11:04:44;15.57;;;11.37;;
1879;SDS011;49285;49.002;8.390;2023-04-25T11:10:01;18.37;;;11.87;;
1879;SDS011;49285;49.002;8.390;2023-04-25T11:12:30;13.37;;;10.30;;
1879;SDS011;49285;49.002;8.390;2023-04-25T11:15:03;13.83;;;9.17;;
1879;SDS011;49285;49.002;8.390;2023-04-25T11:17:30;15.90;;;10.87;;
1879;SDS011;49285;49.002;8.390;2023-04-25T11:19:56;13.93;;;11.90;;
1879;SDS011;49285;49.002;8.390;2023-04-25T11:22:22;14.27;;;11.00;;
1879;SDS011;49285;49.002;8.390;2023-04-25T11:24:48;17.57;;;12.40;;
1879;SDS011;49285;49.002;8.390;2023-04-25T11:27:14;16.50;;;10.90;;
1879;SDS011;49285;49.002;8.390;2023-04-25T11:29:40;11.50;;;10.30;;
1879;SDS011;49285;49.002;8.390;2023-04-25T11:32:06;13.97;;;11.70;;
1879;SDS011;49285;49.002;8.390;2023-04-25T11:34:32;18.10;;;12.87;;
1879;SDS011;49285;49.002;8.390;2023-04-25T11:36:59;16.70;;;11.73;;
1879;SDS011;49285;49.002;8.390;2023-04-25T11:39:25;8.87;;;7.20;;
1879;SDS011;49285;49.002;8.390;2023-04-25T11:41:52;12.27;;;8.10;;
1879;SDS011;49285;49.002;8.390;2023-04-25T11:44:18;8.70;;;6.47;;
1879;SDS011;49285;49.002;8.390;2023-04-25T11:46:45;6.03;;;4.73;;
1879;SDS011;49285;49.002;8.390;2023-04-25T11:49:11;5.80;;;4.47;;
1879;SDS011;49285;49.002;8.390;2023-04-25T11:51:41;4.93;;;4.43;;
1879;SDS011;49285;49.002;8.390;2023-04-25T11:54:08;6.47;;;5.13;;
1879;SDS011;49285;49.002;8.390;2023-04-25T11:56:33;5.80;;;4.50;;
1879;SDS011;49285;49.002;8.390;2023-04-25T11:59:00;6.47;;;4.80;;
1879;SDS011;49285;49.002;8.390;2023-04-25T12:01:40;6.30;;;5.23;;
1879;SDS011;49285;49.002;8.390;2023-04-25T12:04:10;6.20;;;5.60;;
1879;SDS011;49285;49.002;8.390;2023-04-25T12:06:39;6.50;;;5.60;;
1879;SDS011;49285;49.002;8.390;2023-04-25T12:09:09;10.03;;;7.73;;
1879;SDS011;49285;49.002;8.390;2023-04-25T12:14:08;11.17;;;8.40;;
1879;SDS011;49285;49.002;8.390;2023-04-25T12:19:14;13.93;;;8.57;;
1879;SDS011;49285;49.002;8.390;2023-04-25T12:21:41;11.20;;;8.90;;
1879;SDS011;49285;49.002;8.390;2023-04-25T12:24:15;14.10;;;8.73;;
1879;SDS011;49285;49.002;8.390;2023-04-25T12:26:49;10.70;;;8.77;;
1879;SDS011;49285;49.002;8.390;2023-04-25T12:29:18;9.83;;;7.50;;
1879;SDS011;49285;49.002;8.390;2023-04-25T12:31:49;11.70;;;8.57;;
1879;SDS011;49285;49.002;8.390;2023-04-25T12:34:17;9.47;;;8.03;;
1879;SDS011;49285;49.002;8.390;2023-04-25T12:36:43;10.47;;;7.30;;
1879;SDS011;49285;49.002;8.390;2023-04-25T12:39:14;7.60;;;6.70;;
1879;SDS011;49285;49.002;8.390;2023-04-25T12:41:44;7.03;;;6.20;;
1879;SDS011;49285;49.002;8.390;2023-04-25T12:44:10;8.97;;;6.63;;
1879;SDS011;49285;49.002;8.390;2023-04-25T12:46:36;7.10;;;5.80;;
1879;SDS011;49285;49.002;8.390;2023-04-25T12:49:03;5.77;;;4.80;;
1879;SDS011;49285;49.002;8.390;2023-04-25T12:51:29;6.23;;;4.90;;
1879;SDS011;49285;49.002;8.390;2023-04-25T12:53:54;6.70;;;5.70;;
1879;SDS011;49285;49.002;8.390;2023-04-25T12:56:20;10.43;;;7.60;;
1879;SDS011;49285;49.002;8.390;2023-04-25T12:58:46;8.70;;;6.43;;
1879;SDS011;49285;49.002;8.390;2023-04-25T13:01:13;5.60;;;4.17;;
1879;SDS011;49285;49.002;8.390;2023-04-25T13:03:39;6.03;;;5.27;;
1879;SDS011;49285;49.002;8.390;2023-04-25T13:06:06;8.57;;;6.10;;
1879;SDS011;49285;49.002;8.390;2023-04-25T13:08:32;7.30;;;6.20;;
1879;SDS011;49285;49.002;8.390;2023-04-25T13:10:57;6.30;;;5.70;;
1879;SDS011;49285;49.002;8.390;2023-04-25T13:13:23;5.43;;;4.93;;
1879;SDS011;49285;49.002;8.390;2023-04-25T13:15:48;9.60;;;7.10;;
1879;SDS011;49285;49.002;8.390;2023-04-25T13:18:14;6.50;;;5.63;;
1879;SDS011;49285;49.002;8.390;2023-04-25T13:20:40;7.40;;;5.67;;
1879;SDS011;49285;49.002;8.390;2023-04-25T13:23:06;5.70;;;4.33;;
1879;SDS011;49285;49.002;8.390;2023-04-25T13:25:31;6.03;;;4.93;;
1879;SDS011;49285;49.002;8.390;2023-04-25T13:27:57;6.77;;;4.70;;
1879;SDS011;49285;49.002;8.390;2023-04-25T13:30:23;5.07;;;3.73;;
1879;SDS011;49285;49.002;8.390;2023-04-25T13:32:49;6.00;;;3.97;;
1879;SDS011;49285;49.002;8.390;2023-04-25T13:35:14;6.00;;;3.63;;
1879;SDS011;49285;49.002;8.390;2023-04-25T13:37:41;4.83;;;4.33;;
1879;SDS011;49285;49.002;8.390;2023-04-25T13:40:09;5.73;;;4.13;;
1879;SDS011;49285;49.002;8.390;2023-04-25T13:42:38;7.30;;;4.90;;
1879;SDS011;49285;49.002;8.390;2023-04-25T13:45:05;6.03;;;5.40;;
1879;SDS011;49285;49.002;8.390;2023-04-25T13:47:31;5.20;;;4.70;;
1879;SDS011;49285;49.002;8.390;2023-04-25T13:49:57;6.97;;;5.47;;
1879;SDS011;49285;49.002;8.390;2023-04-25T13:52:22;6.93;;;5.50;;
1879;SDS011;49285;49.002;8.390;2023-04-25T13:54:49;7.70;;;4.40;;
1879;SDS011;49285;49.002;8.390;2023-04-25T13:57:15;4.70;;;4.30;;
1879;SDS011;49285;49.002;8.390;2023-04-25T13:59:41;5.83;;;4.70;;
1879;SDS011;49285;49.002;8.390;2023-04-25T14:02:07;4.73;;;4.10;;
1879;SDS011;49285;49.002;8.390;2023-04-25T14:04:33;5.13;;;4.50;;
1879;SDS011;49285;49.002;8.390;2023-04-25T14:06:58;5.10;;;4.60;;
1879;SDS011;49285;49.002;8.390;2023-04-25T14:09:24;5.60;;;4.50;;
1879;SDS011;49285;49.002;8.390;2023-04-25T14:11:52;6.10;;;4.73;;
1879;SDS011;49285;49.002;8.390;2023-04-25T14:14:18;5.20;;;4.20;;
1879;SDS011;49285;49.002;8.390;2023-04-25T14:16:44;4.60;;;4.20;;
1879;SDS011;49285;49.002;8.390;2023-04-25T14:19:13;4.83;;;4.33;;
1879;SDS011;49285;49.002;8.390;2023-04-25T14:21:42;4.37;;;3.97;;
1879;SDS011;49285;49.002;8.390;2023-04-25T14:24:08;6.80;;;4.90;;
1879;SDS011;49285;49.002;8.390;2023-04-25T14:26:35;6.70;;;4.87;;
1879;SDS011;49285;49.002;8.390;2023-04-25T14:29:01;5.10;;;4.60;;
1879;SDS011;49285;49.002;8.390;2023-04-25T14:31:28;7.57;;;4.37;;
1879;SDS011;49285;49.002;8.390;2023-04-25T14:33:54;6.07;;;4.80;;
1879;SDS011;49285;49.002;8.390;2023-04-25T14:36:20;7.13;;;4.53;;
1879;SDS011;49285;49.002;8.390;2023-04-25T14:38:46;6.77;;;5.33;;
1879;SDS011;49285;49.002;8.390;2023-04-25T14:41:11;6.93;;;5.37;;
1879;SDS011;49285;49.002;8.390;2023-04-25T14:43:37;7.50;;;4.77;;
1879;SDS011;49285;49.002;8.390;2023-04-25T14:46:04;5.10;;;4.47;;
1879;SDS011;49285;49.002;8.390;2023-04-25T14:48:31;5.37;;;4.70;;
1879;SDS011;49285;49.002;8.390;2023-04-25T14:50:57;5.53;;;3.97;;
1879;SDS011;49285;49.002;8.390;2023-04-25T14:53:23;5.90;;;4.73;;
1879;SDS011;49285;49.002;8.390;2023-04-25T14:55:49;5.10;;;4.60;;
1879;SDS011;49285;49.002;8.390;2023-04-25T14:58:14;5.40;;;4.90;;
1879;SDS011;49285;49.002;8.390;2023-04-25T15:00:40;5.53;;;4.93;;
1879;SDS011;49285;49.002;8.390;2023-04-25T15:03:06;5.30;;;4.80;;